Fairbanks International

Airport
ICAO code: 
PAFA
Summary
ICAO Region: 
NAM
Territory: 
Location: 
Fairbanks,
Coordinates: 
Aerial View: 
64° 49' 11.983" N, 147° 51' 51.594" W
Airport BS: 
Bird Strike
Airport CFIT: 
Altimeter Temperature Error Correction
Metar
Observation
PAFA 042353Z 00000KT 10SM SCT060 BKN120 BKN200 M33/M38 A3036 RMK AO2 SLP306 T13281383 11328 21372 51013
Station
Fairbanks, Fairbanks International Airport
Date/Time
2021-12-04 23:53:00
Wind direction
Wind speed
00 kts
Lowest cloud amount
scattered clouds
Temperature
-32.8°C
Dew point
-38.3°C
Humidity
57%
Weather condition
n/a

Description

International airport serving Fairbanks, Alaska.

Climatology

Subarctic climate (Köppen climate classification Dfc) - long, usually very cold winters, and short, cool to mild summers.

Runways

Designator Length Width Surface Rops
2/20 884 23 GRVL Yes/Yes
02W/20W 1646 30 WATER No/No
02R/20L 1982 30 ASPH-G Yes/Yes
02L/20R 3597 46 ASPH-G Yes/Yes
Airport map: 
Aerial View: 

SKYbrary Partners:

Safety knowledge contributed by: